Time;durP1;ratioP1;P1;durP2;ratioP2;P2;SDS_P1;SDS_P2;PMS_P1;PMS_P2;Temp;Humidity;BMP_temperature;BMP_pressure;BME280_temperature;BME280_humidity;BME280_pressure;Samples;Min_cycle;Max_cycle;Signal;HPM_P1;HPM_P2
2022/07/14 00:00:59;;;;;;;21.58;20.08;;;16.40;99.90;;;;;;5053414;28;20666;-78
2022/07/14 00:03:25;;;;;;;21.55;20.05;;;16.30;99.90;;;;;;5029941;28;20556;-78
2022/07/14 00:05:52;;;;;;;21.63;20.08;;;16.30;99.90;;;;;;5050590;28;20041;-78
2022/07/14 00:08:19;;;;;;;20.65;19.25;;;16.40;99.90;;;;;;5024814;28;20103;-78
2022/07/14 00:10:46;;;;;;;20.73;19.38;;;16.40;99.90;;;;;;5034074;28;20106;-78
2022/07/14 00:13:13;;;;;;;19.50;17.95;;;16.60;99.90;;;;;;5045465;28;20644;-77
2022/07/14 00:15:40;;;;;;;20.98;19.33;;;16.50;99.90;;;;;;5041306;28;20482;-78
2022/07/14 00:18:07;;;;;;;20.00;18.70;;;16.60;99.90;;;;;;5053457;28;20048;-77
2022/07/14 00:20:34;;;;;;;20.73;19.13;;;16.50;99.90;;;;;;5046328;28;20094;-78
2022/07/14 00:23:01;;;;;;;19.85;18.27;;;16.40;99.90;;;;;;5035911;28;20476;-77
2022/07/14 00:25:28;;;;;;;19.25;17.83;;;16.30;99.90;;;;;;5016173;28;20059;-77
2022/07/14 00:27:55;;;;;;;17.63;16.33;;;16.20;99.90;;;;;;5021374;28;20048;-77
2022/07/14 00:30:22;;;;;;;18.17;16.85;;;16.10;99.90;;;;;;5007220;28;20036;-77
2022/07/14 00:32:49;;;;;;;19.42;17.17;;;15.90;99.90;;;;;;5013406;28;20040;-77
2022/07/14 00:35:16;;;;;;;18.60;17.20;;;15.80;99.90;;;;;;5033557;28;20501;-78
2022/07/14 00:37:42;;;;;;;17.67;16.40;;;15.90;99.90;;;;;;5038481;28;20045;-78
2022/07/14 00:40:10;;;;;;;17.70;16.25;;;15.80;99.90;;;;;;5030669;28;20045;-78
2022/07/14 00:42:43;;;;;;;18.40;16.65;;;15.90;99.90;;;;;;5044779;28;20087;-77
2022/07/14 00:45:13;;;;;;;19.42;18.02;;;15.90;99.90;;;;;;5037819;28;20063;-78
2022/07/14 00:47:41;;;;;;;19.55;18.10;;;16.00;99.90;;;;;;5031615;28;20044;-78
2022/07/14 00:50:10;;;;;;;20.42;18.65;;;16.00;99.90;;;;;;5033765;28;20049;-78
2022/07/14 00:52:39;;;;;;;19.10;17.52;;;15.90;99.90;;;;;;5018558;28;20159;-78
2022/07/14 00:55:07;;;;;;;18.85;17.75;;;15.80;99.90;;;;;;5047696;28;20040;-78
2022/07/14 00:57:34;;;;;;;20.23;18.92;;;15.80;99.90;;;;;;5017933;28;20095;-78
2022/07/14 01:00:02;;;;;;;20.35;18.88;;;15.80;99.90;;;;;;5048348;28;20047;-78
2022/07/14 01:02:29;;;;;;;20.48;19.08;;;15.70;99.90;;;;;;5022434;28;20037;-78
2022/07/14 01:04:56;;;;;;;19.55;17.92;;;15.70;99.90;;;;;;5056962;28;20510;-78
2022/07/14 01:07:23;;;;;;;18.90;17.70;;;15.60;99.90;;;;;;5030221;28;20036;-77
2022/07/14 01:09:50;;;;;;;20.05;18.35;;;15.70;99.90;;;;;;5033945;28;20040;-77
2022/07/14 01:12:17;;;;;;;20.90;19.20;;;15.60;99.90;;;;;;5045280;28;20510;-78
2022/07/14 01:14:45;;;;;;;20.17;18.67;;;15.60;99.90;;;;;;5028047;28;20045;-78
2022/07/14 01:17:12;;;;;;;20.35;18.73;;;15.60;99.90;;;;;;5050240;28;20722;-77
2022/07/14 01:19:40;;;;;;;18.73;17.13;;;15.60;99.90;;;;;;5038571;28;20044;-78
2022/07/14 01:22:07;;;;;;;19.55;17.92;;;15.60;99.90;;;;;;5047327;28;20063;-77
2022/07/14 01:24:35;;;;;;;19.35;17.42;;;15.60;99.90;;;;;;5030520;28;20041;-78
2022/07/14 01:27:02;;;;;;;19.15;17.25;;;15.60;99.90;;;;;;5030394;28;20041;-77
2022/07/14 01:29:29;;;;;;;18.70;17.20;;;15.60;99.90;;;;;;5058062;28;20076;-77
2022/07/14 01:31:56;;;;;;;19.30;17.77;;;15.60;99.90;;;;;;5056876;28;20036;-77
2022/07/14 01:34:23;;;;;;;19.00;17.55;;;15.80;99.90;;;;;;5041519;28;20068;-78
2022/07/14 01:36:52;;;;;;;19.17;17.60;;;15.70;99.90;;;;;;5031220;28;20041;-76
2022/07/14 01:39:19;;;;;;;19.13;17.73;;;15.70;99.90;;;;;;5042851;28;20052;-76
2022/07/14 01:41:46;;;;;;;19.42;17.83;;;15.80;99.90;;;;;;5054478;28;20079;-76
2022/07/14 01:44:13;;;;;;;19.75;17.77;;;15.80;99.90;;;;;;5033770;28;20041;-78
2022/07/14 01:46:40;;;;;;;19.65;18.27;;;15.90;99.90;;;;;;5034906;28;20051;-79
2022/07/14 01:49:08;;;;;;;20.10;18.30;;;15.90;99.90;;;;;;5036790;28;20071;-79
2022/07/14 01:51:35;;;;;;;20.40;18.58;;;15.90;99.90;;;;;;5021923;28;20395;-79
2022/07/14 01:54:06;;;;;;;21.15;19.35;;;15.90;99.90;;;;;;5030393;28;20117;-76
2022/07/14 01:56:39;;;;;;;19.35;17.85;;;15.90;99.90;;;;;;5027341;28;20049;-79
2022/07/14 01:59:08;;;;;;;19.38;17.98;;;15.80;99.90;;;;;;5026984;28;20084;-77
2022/07/14 02:01:42;;;;;;;19.90;18.30;;;15.70;99.90;;;;;;5017298;28;20045;-76
2022/07/14 02:04:13;;;;;;;18.95;17.63;;;15.80;99.90;;;;;;5032984;28;20044;-77
2022/07/14 02:06:54;;;;;;;19.85;18.27;;;15.70;99.90;;;;;;5034818;28;20056;-77
2022/07/14 02:12:36;;;;;;;20.13;18.67;;;15.80;99.90;;;;;;5021883;28;20107;-78
2022/07/14 02:15:04;;;;;;;19.92;17.92;;;15.70;99.90;;;;;;5020188;28;20044;-75
2022/07/14 02:17:32;;;;;;;20.25;18.25;;;15.90;99.90;;;;;;5034544;28;20057;-79
2022/07/14 02:19:59;;;;;;;18.35;16.85;;;15.70;99.90;;;;;;5051301;28;20120;-76
2022/07/14 02:22:26;;;;;;;20.58;17.77;;;15.80;99.90;;;;;;5023968;28;20160;-78
2022/07/14 02:24:53;;;;;;;31.08;17.27;;;15.90;99.90;;;;;;5039625;28;20044;-78
2022/07/14 02:27:20;;;;;;;27.27;16.50;;;16.00;99.90;;;;;;5033078;28;20130;-78
2022/07/14 02:29:47;;;;;;;23.70;16.60;;;16.00;99.90;;;;;;5040533;28;20127;-78
2022/07/14 02:32:14;;;;;;;19.65;17.65;;;16.00;99.90;;;;;;5046393;28;20532;-78
2022/07/14 02:34:41;;;;;;;24.08;18.33;;;16.00;99.90;;;;;;5018075;28;20044;-78
2022/07/14 02:37:07;;;;;;;19.45;17.40;;;15.80;99.90;;;;;;5034023;28;20033;-78
2022/07/14 02:39:34;;;;;;;19.80;17.35;;;15.80;99.90;;;;;;5038242;28;20538;-78
2022/07/14 02:42:01;;;;;;;19.73;17.77;;;15.90;99.90;;;;;;5032876;28;20037;-78
2022/07/14 02:44:28;;;;;;;21.17;18.20;;;16.00;99.90;;;;;;5031667;28;20095;-78
2022/07/14 02:46:55;;;;;;;24.58;18.65;;;15.90;99.90;;;;;;5005203;28;20505;-78
2022/07/14 02:49:22;;;;;;;30.35;19.48;;;15.90;99.90;;;;;;5034961;28;20040;-79
2022/07/14 02:51:48;;;;;;;25.73;18.65;;;16.00;99.90;;;;;;5031036;28;20037;-78
2022/07/14 02:54:17;;;;;;;26.08;17.10;;;15.80;99.90;;;;;;5034231;28;20060;-78
2022/07/14 02:56:45;;;;;;;28.60;18.27;;;15.80;99.90;;;;;;5029378;28;20083;-78
2022/07/14 02:59:13;;;;;;;30.42;17.58;;;15.70;99.90;;;;;;5026735;28;20051;-78
2022/07/14 03:01:43;;;;;;;31.67;17.10;;;15.60;99.90;;;;;;5036065;28;20033;-78
2022/07/14 03:04:16;;;;;;;37.80;19.13;;;15.60;99.90;;;;;;5037033;28;20543;-77
2022/07/14 03:06:43;;;;;;;30.98;19.20;;;15.60;99.90;;;;;;5023807;28;20162;-78
2022/07/14 03:09:10;;;;;;;39.08;19.67;;;15.60;99.90;;;;;;5025441;28;20036;-78
2022/07/14 03:11:36;;;;;;;36.58;19.88;;;15.70;99.90;;;;;;5022733;28;21339;-77
2022/07/14 03:14:04;;;;;;;36.88;19.33;;;15.70;99.90;;;;;;5027083;28;20041;-79
2022/07/14 03:16:32;;;;;;;38.00;19.75;;;15.60;99.90;;;;;;5026435;28;20040;-77
2022/07/14 03:19:05;;;;;;;35.55;21.95;;;15.70;99.90;;;;;;5032539;28;20110;-79
2022/07/14 03:21:32;;;;;;;37.13;22.10;;;15.70;99.90;;;;;;5027504;28;20167;-78
2022/07/14 03:24:00;;;;;;;36.85;23.20;;;15.70;99.90;;;;;;5035216;28;20098;-78
2022/07/14 03:26:29;;;;;;;39.92;21.42;;;15.70;99.90;;;;;;5004354;28;20045;-78
2022/07/14 03:28:57;;;;;;;38.85;22.30;;;15.70;99.90;;;;;;5034266;28;20156;-78
2022/07/14 03:31:24;;;;;;;37.70;22.95;;;15.70;99.90;;;;;;5035442;28;20052;-78
2022/07/14 03:33:52;;;;;;;48.70;24.48;;;15.70;99.90;;;;;;5024825;28;20037;-78
2022/07/14 03:36:21;;;;;;;34.83;22.20;;;15.80;99.90;;;;;;5022367;28;20037;-78
2022/07/14 03:38:48;;;;;;;40.03;22.42;;;15.70;99.90;;;;;;5014278;28;20102;-78
2022/07/14 03:41:15;;;;;;;42.85;24.58;;;15.70;99.90;;;;;;5029915;28;20611;-78
2022/07/14 03:43:43;;;;;;;39.88;22.88;;;15.70;99.90;;;;;;5028056;28;20040;-78
2022/07/14 03:46:12;;;;;;;35.85;23.25;;;15.70;99.90;;;;;;5045722;28;20797;-78
2022/07/14 03:48:44;;;;;;;37.63;23.65;;;15.70;99.90;;;;;;5013966;28;20051;-79
2022/07/14 03:51:11;;;;;;;32.40;22.48;;;15.70;99.90;;;;;;5025048;28;20708;-78
2022/07/14 03:53:40;;;;;;;38.13;21.38;;;15.60;99.90;;;;;;5020481;28;20076;-78
2022/07/14 03:56:07;;;;;;;38.30;23.65;;;15.70;99.90;;;;;;5014634;28;20094;-78
2022/07/14 03:58:43;;;;;;;;;;;15.80;99.90;;;;;;5042833;28;20040;-78
2022/07/14 04:01:09;;;;;;;39.45;22.27;;;15.60;99.90;;;;;;5053446;28;19920;-79
2022/07/14 04:03:37;;;;;;;34.22;20.77;;;15.80;99.90;;;;;;5017448;28;20130;-78
2022/07/14 04:06:05;;;;;;;42.05;22.77;;;15.80;99.90;;;;;;5028944;28;20052;-78
2022/07/14 04:08:31;;;;;;;36.13;22.35;;;15.70;99.90;;;;;;5016823;28;20051;-79
2022/07/14 04:11:01;;;;;;;44.63;22.63;;;15.60;99.90;;;;;;5005605;28;20069;-79
2022/07/14 04:13:29;;;;;;;32.78;19.88;;;15.60;99.90;;;;;;5032860;28;20107;-79
2022/07/14 04:15:56;;;;;;;27.23;19.80;;;15.70;99.90;;;;;;5048265;28;20517;-78
2022/07/14 04:18:23;;;;;;;31.08;18.00;;;15.70;99.90;;;;;;5029305;28;20086;-78
2022/07/14 04:20:54;;;;;;;33.25;17.88;;;15.50;99.90;;;;;;5038380;28;20562;-78
2022/07/14 04:23:23;;;;;;;31.33;16.92;;;15.50;99.90;;;;;;5029095;28;20040;-77
2022/07/14 04:25:50;;;;;;;28.25;17.63;;;15.60;99.90;;;;;;5029881;28;20037;-78
2022/07/14 04:28:18;;;;;;;28.23;17.27;;;15.60;99.90;;;;;;5009941;28;20045;-78
2022/07/14 04:30:47;;;;;;;31.95;16.90;;;15.60;99.90;;;;;;5039187;28;20114;-78
2022/07/14 04:33:18;;;;;;;30.02;18.02;;;15.60;99.90;;;;;;5033398;28;20036;-77
2022/07/14 04:35:46;;;;;;;33.83;17.05;;;15.70;99.90;;;;;;5033315;28;20114;-78
2022/07/14 04:38:12;;;;;;;27.73;16.48;;;15.70;99.90;;;;;;5031763;28;20041;-78
2022/07/14 04:40:49;;;;;;;35.38;17.15;;;15.70;99.90;;;;;;5038897;28;20608;-78
2022/07/14 04:43:17;;;;;;;24.27;16.77;;;15.70;99.90;;;;;;5031494;28;20379;-78
2022/07/14 04:45:45;;;;;;;27.73;15.55;;;15.50;99.90;;;;;;5031449;28;20040;-78
2022/07/14 04:48:13;;;;;;;21.65;14.57;;;15.30;99.90;;;;;;5019800;28;20079;-78
2022/07/14 04:53:25;;;;;;;29.15;16.38;;;15.40;99.90;;;;;;5045510;28;20040;-78
2022/07/14 04:56:15;;;;;;;20.45;15.88;;;15.60;99.90;;;;;;5032186;28;20037;-77
2022/07/14 04:59:05;;;;;;;23.67;17.05;;;15.90;99.90;;;;;;5039159;28;20239;-79
2022/07/14 05:01:32;;;;;;;26.50;18.40;;;16.20;99.90;;;;;;5032871;28;20615;-78
2022/07/14 05:03:59;;;;;;;26.20;19.67;;;16.50;99.90;;;;;;5037726;28;20080;-77
2022/07/14 05:06:30;;;;;;;28.33;18.55;;;16.50;99.90;;;;;;5026293;28;20073;-79
2022/07/14 05:08:58;;;;;;;30.02;18.45;;;16.40;99.90;;;;;;5012647;28;20057;-78
2022/07/14 05:11:25;;;;;;;33.05;19.10;;;16.30;99.90;;;;;;5033775;28;20052;-77
2022/07/14 05:13:57;;;;;;;26.58;17.48;;;16.20;99.90;;;;;;5023590;28;20037;-78
2022/07/14 05:16:23;;;;;;;27.52;17.70;;;16.00;99.90;;;;;;5026689;28;20041;-78
2022/07/14 05:18:52;;;;;;;29.92;17.58;;;16.00;99.90;;;;;;5032469;28;20699;-77
2022/07/14 05:21:19;;;;;;;37.60;17.83;;;15.60;99.90;;;;;;5029859;28;20048;-77
2022/07/14 05:23:46;;;;;;;37.17;19.05;;;15.60;99.90;;;;;;5029614;28;20043;-78
2022/07/14 05:26:14;;;;;;;24.25;17.67;;;15.80;99.90;;;;;;5011836;28;20045;-78
2022/07/14 05:28:41;;;;;;;26.13;18.05;;;16.10;99.90;;;;;;5032153;28;20072;-77
2022/07/14 05:31:08;;;;;;;24.40;19.50;;;16.30;99.90;;;;;;5036088;28;20536;-78
2022/07/14 05:33:40;;;;;;;29.40;19.88;;;16.30;99.90;;;;;;5019900;28;21345;-78
2022/07/14 05:36:08;;;;;;;25.48;18.98;;;16.50;99.90;;;;;;5029766;28;20743;-77
2022/07/14 05:38:35;;;;;;;33.40;19.13;;;16.40;99.90;;;;;;5024844;28;20055;-78
2022/07/14 05:41:03;;;;;;;25.83;18.05;;;16.10;99.90;;;;;;5032689;28;20071;-78
2022/07/14 05:43:31;;;;;;;26.20;18.75;;;16.30;99.90;;;;;;5030613;28;20033;-78
2022/07/14 05:46:09;;;;;;;26.63;19.02;;;16.50;99.90;;;;;;5056163;28;20037;-78
2022/07/14 05:48:38;;;;;;;29.67;19.20;;;16.70;99.90;;;;;;5029114;28;20716;-79
2022/07/14 05:51:14;;;;;;;27.15;19.52;;;16.80;99.90;;;;;;5026423;28;20398;-78
2022/07/14 05:53:45;;;;;;;28.25;20.40;;;16.80;99.90;;;;;;5022005;28;20033;-78
2022/07/14 05:56:17;;;;;;;28.33;21.08;;;17.10;99.90;;;;;;5027649;28;20068;-78
2022/07/14 05:58:46;;;;;;;28.15;20.77;;;17.20;99.90;;;;;;5032042;28;20112;-79
2022/07/14 06:01:14;;;;;;;24.48;20.77;;;17.30;99.90;;;;;;5017535;28;20036;-79
2022/07/14 06:03:41;;;;;;;31.45;20.95;;;17.30;99.90;;;;;;5028980;28;20037;-78
2022/07/14 06:06:09;;;;;;;33.33;21.38;;;17.30;99.90;;;;;;5027729;28;20045;-78
2022/07/14 06:08:38;;;;;;;31.98;22.95;;;17.10;99.90;;;;;;5037338;28;20036;-78
2022/07/14 06:11:05;;;;;;;29.88;22.50;;;17.20;99.90;;;;;;5029905;28;20037;-78
2022/07/14 06:13:32;;;;;;;28.60;20.92;;;17.30;99.90;;;;;;5026069;28;20131;-77
2022/07/14 06:16:00;;;;;;;24.08;20.88;;;17.40;99.90;;;;;;5048735;28;20048;-78
2022/07/14 06:18:29;;;;;;;28.65;21.17;;;17.40;99.90;;;;;;5040927;28;20037;-79
2022/07/14 06:20:57;;;;;;;24.15;21.40;;;17.20;99.90;;;;;;5032347;28;20141;-77
2022/07/14 06:23:24;;;;;;;30.65;21.98;;;17.20;99.90;;;;;;5032789;28;20379;-78
2022/07/14 06:25:51;;;;;;;25.77;20.77;;;17.40;99.90;;;;;;5026253;28;20053;-79
2022/07/14 06:28:23;;;;;;;29.52;22.20;;;17.50;99.90;;;;;;5024509;28;20370;-78
2022/07/14 06:30:53;;;;;;;25.77;21.83;;;17.70;99.90;;;;;;5027279;28;20103;-79
2022/07/14 06:33:20;;;;;;;29.05;21.33;;;17.60;99.90;;;;;;5032070;28;20048;-78
2022/07/14 06:35:47;;;;;;;34.35;22.88;;;17.70;99.90;;;;;;5017715;28;20079;-78
2022/07/14 06:38:28;;;;;;;31.98;23.15;;;17.80;99.90;;;;;;5023892;28;20049;-78
2022/07/14 06:40:56;;;;;;;30.15;21.73;;;17.60;99.90;;;;;;5030328;28;20053;-78
2022/07/14 06:43:25;;;;;;;39.22;22.20;;;17.20;99.90;;;;;;5028774;28;20091;-78
2022/07/14 06:45:57;;;;;;;25.48;21.30;;;17.00;99.90;;;;;;5033760;28;20049;-78
2022/07/14 06:48:24;;;;;;;26.42;20.83;;;17.00;99.90;;;;;;5025276;28;20041;-79
2022/07/14 06:50:51;;;;;;;26.77;21.45;;;17.00;99.90;;;;;;5022739;28;20052;-78
2022/07/14 06:53:18;;;;;;;35.65;23.40;;;17.30;99.90;;;;;;5017865;28;20045;-78
2022/07/14 06:55:44;;;;;;;32.47;24.08;;;17.40;99.90;;;;;;5050975;28;20545;-79
2022/07/14 06:58:11;;;;;;;26.23;23.50;;;17.70;99.90;;;;;;5053919;28;20393;-77
2022/07/14 07:00:39;;;;;;;34.15;25.10;;;17.80;99.90;;;;;;5054129;28;20341;-78
2022/07/14 07:03:11;;;;;;;29.25;23.15;;;17.90;99.90;;;;;;5033961;28;20052;-78
2022/07/14 07:08:25;;;;;;;27.25;24.48;;;18.00;99.90;;;;;;5025438;28;20056;-79
2022/07/14 07:10:54;;;;;;;28.63;25.08;;;18.20;99.90;;;;;;5048410;28;20109;-77
2022/07/14 07:13:21;;;;;;;28.02;24.70;;;18.40;99.90;;;;;;5026292;28;20564;-78
2022/07/14 07:15:56;;;;;;;28.60;24.70;;;18.20;99.90;;;;;;5050713;28;20091;-79
2022/07/14 07:18:22;;;;;;;28.13;25.25;;;18.50;99.90;;;;;;5043711;28;20049;-79
2022/07/14 07:20:49;;;;;;;28.15;23.52;;;18.60;99.90;;;;;;5036020;28;20045;-78
2022/07/14 07:23:18;;;;;;;34.33;25.60;;;18.40;99.90;;;;;;5027835;28;20163;-78
2022/07/14 07:25:45;;;;;;;30.65;24.48;;;18.40;99.90;;;;;;5045594;28;20041;-78
2022/07/14 07:28:12;;;;;;;32.50;24.42;;;18.20;99.90;;;;;;5027011;28;20041;-79
2022/07/14 07:30:39;;;;;;;29.23;24.25;;;18.40;99.90;;;;;;5016665;28;20044;-79
2022/07/14 07:33:06;;;;;;;31.70;25.15;;;18.20;99.90;;;;;;5032662;28;20040;-79
2022/07/14 07:35:32;;;;;;;28.15;25.10;;;18.40;99.90;;;;;;5033859;28;20049;-78
2022/07/14 07:38:05;;;;;;;32.28;26.77;;;18.50;99.90;;;;;;5054684;28;20131;-78
2022/07/14 07:40:32;;;;;;;27.55;24.63;;;18.30;99.90;;;;;;5014536;28;20061;-78
2022/07/14 07:42:59;;;;;;;26.95;24.35;;;18.30;99.90;;;;;;5050064;28;20421;-78
2022/07/14 07:45:26;;;;;;;27.23;24.40;;;18.40;99.90;;;;;;5045532;28;20442;-80
2022/07/14 07:47:52;;;;;;;29.95;24.05;;;18.50;99.90;;;;;;5043733;28;20391;-79
2022/07/14 07:50:19;;;;;;;26.65;23.95;;;18.70;99.90;;;;;;5047596;28;20375;-80
2022/07/14 07:52:46;;;;;;;27.23;24.35;;;18.90;99.90;;;;;;5049815;28;20052;-78
2022/07/14 07:55:13;;;;;;;27.92;25.40;;;19.00;99.90;;;;;;5028397;28;20045;-80
2022/07/14 07:57:52;;;;;;;28.55;25.17;;;19.00;99.90;;;;;;5034105;28;20041;-77
2022/07/14 08:00:19;;;;;;;32.20;25.90;;;19.10;99.90;;;;;;5048190;28;20661;-79
2022/07/14 08:02:52;;;;;;;34.22;26.30;;;19.10;99.90;;;;;;5025015;28;20083;-80
2022/07/14 08:05:24;;;;;;;41.25;27.83;;;19.00;99.90;;;;;;5035176;28;20744;-79
2022/07/14 08:08:11;;;;;;;33.90;26.98;;;19.10;99.90;;;;;;5052161;28;20099;-80
2022/07/14 08:10:39;;;;;;;30.27;26.13;;;19.10;99.90;;;;;;5052630;28;20048;-78
2022/07/14 08:13:07;;;;;;;29.05;26.10;;;19.10;99.90;;;;;;5042340;28;20371;-80
2022/07/14 08:15:34;;;;;;;30.60;26.58;;;19.10;99.90;;;;;;5032662;28;20051;-80
2022/07/14 08:18:01;;;;;;;30.83;27.50;;;19.00;99.90;;;;;;5034952;28;20147;-78
2022/07/14 08:20:29;;;;;;;30.58;26.73;;;19.20;99.90;;;;;;5031802;28;20050;-78
2022/07/14 08:22:56;;;;;;;33.10;27.10;;;19.50;99.90;;;;;;5038690;28;20504;-79
2022/07/14 08:25:23;;;;;;;31.35;27.48;;;19.90;99.90;;;;;;5036214;28;20036;-77
2022/07/14 08:27:51;;;;;;;29.90;26.95;;;19.90;99.90;;;;;;5021274;28;20078;-76
2022/07/14 08:30:17;;;;;;;31.38;28.20;;;20.00;99.90;;;;;;5035027;28;20036;-76
2022/07/14 08:32:51;;;;;;;30.10;27.25;;;20.00;99.90;;;;;;5021098;28;20049;-76
2022/07/14 08:35:21;;;;;;;29.60;26.83;;;19.80;99.90;;;;;;5039299;28;20778;-76
2022/07/14 08:37:48;;;;;;;28.63;25.80;;;19.70;99.90;;;;;;5057537;28;20106;-77
2022/07/14 08:40:18;;;;;;;30.08;26.77;;;20.00;99.90;;;;;;5046918;28;20045;-77
2022/07/14 08:42:47;;;;;;;28.98;26.33;;;20.40;99.90;;;;;;5047297;28;20039;-77
2022/07/14 08:45:17;;;;;;;29.77;26.83;;;20.50;99.90;;;;;;5037480;28;20045;-76
2022/07/14 08:47:45;;;;;;;28.88;26.35;;;20.50;99.90;;;;;;5053798;28;20476;-77
2022/07/14 08:50:16;;;;;;;28.10;25.63;;;20.60;99.90;;;;;;5052230;28;20048;-77
2022/07/14 08:52:44;;;;;;;28.20;25.77;;;20.60;99.90;;;;;;5050214;28;20045;-78
2022/07/14 08:55:13;;;;;;;27.63;25.23;;;20.60;99.90;;;;;;5037934;28;20048;-77
2022/07/14 08:57:42;;;;;;;27.63;25.08;;;20.40;99.90;;;;;;5050967;28;20154;-78
2022/07/14 09:00:17;;;;;;;25.63;23.73;;;20.20;99.90;;;;;;5047852;28;20036;-80
2022/07/14 09:02:53;;;;;;;25.75;23.73;;;20.20;99.90;;;;;;5039768;28;20063;-80
2022/07/14 09:05:44;;;;;;;27.23;24.85;;;20.10;99.90;;;;;;5036503;28;20204;-81
2022/07/14 09:08:12;;;;;;;27.17;25.08;;;20.30;99.90;;;;;;5035217;28;20465;-79
2022/07/14 09:10:41;;;;;;;26.85;24.02;;;20.60;99.90;;;;;;5030278;28;20771;-80
2022/07/14 09:13:31;;;;;;;27.02;25.13;;;20.90;99.90;;;;;;5035160;28;20053;-78
2022/07/14 09:16:17;;;;;;;27.13;24.88;;;21.00;99.90;;;;;;5033052;28;20044;-78
2022/07/14 09:19:14;;;;;;;27.00;24.30;;;21.00;99.90;;;;;;5032473;28;20409;-81
2022/07/14 09:21:51;;;;;;;28.00;25.48;;;21.40;99.90;;;;;;5055609;28;20079;-78
2022/07/14 09:24:19;;;;;;;25.55;23.70;;;21.80;99.90;;;;;;5027297;28;20057;-77
2022/07/14 09:26:48;;;;;;;26.73;24.63;;;21.80;99.90;;;;;;5026206;28;20460;-79
2022/07/14 09:29:21;;;;;;;26.02;23.90;;;22.00;99.90;;;;;;5034927;28;20044;-79
2022/07/14 09:31:48;;;;;;;26.20;24.27;;;21.90;99.90;;;;;;5047193;28;20040;-78
2022/07/14 09:34:26;;;;;;;28.08;25.65;;;21.50;99.90;;;;;;5032248;28;20083;-76
2022/07/14 09:37:12;;;;;;;26.98;24.88;;;21.70;99.90;;;;;;5044485;28;20481;-77
2022/07/14 09:39:53;;;;;;;27.88;25.58;;;21.90;99.90;;;;;;5044954;28;20120;-77
2022/07/14 09:42:20;;;;;;;26.98;24.67;;;22.20;99.90;;;;;;5038242;28;20514;-77
2022/07/14 09:44:47;;;;;;;27.30;25.10;;;22.40;99.90;;;;;;5027482;28;20052;-77
2022/07/14 09:47:14;;;;;;;27.63;25.17;;;22.80;99.90;;;;;;5027012;28;20044;-77
2022/07/14 09:49:41;;;;;;;27.27;25.02;;;22.90;99.90;;;;;;5022239;28;20148;-77
2022/07/14 09:52:32;;;;;;;27.17;24.90;;;22.90;99.90;;;;;;5024584;28;20056;-77
2022/07/14 09:54:59;;;;;;;27.30;24.65;;;22.80;99.90;;;;;;5006089;28;20779;-77
2022/07/14 09:57:26;;;;;;;27.17;25.05;;;22.60;99.90;;;;;;5025881;28;20041;-77
2022/07/14 09:59:54;;;;;;;25.60;23.67;;;22.50;99.90;;;;;;5035940;28;20513;-78
2022/07/14 10:02:21;;;;;;;26.63;24.67;;;22.60;99.90;;;;;;5025180;28;20053;-78
2022/07/14 10:04:51;;;;;;;26.73;24.67;;;22.70;99.90;;;;;;5030792;28;20063;-78
2022/07/14 10:07:18;;;;;;;26.88;25.02;;;22.80;99.90;;;;;;5031196;28;20167;-77
2022/07/14 10:10:01;;;;;;;26.70;24.90;;;23.00;99.90;;;;;;5043878;28;20116;-77
2022/07/14 10:12:29;;;;;;;28.35;25.85;;;23.20;99.90;;;;;;5027401;28;20128;-77
2022/07/14 10:15:02;;;;;;;28.30;26.13;;;23.40;99.90;;;;;;5034890;28;20107;-76
2022/07/14 10:17:30;;;;;;;28.38;25.85;;;23.20;99.90;;;;;;5028154;28;20048;-76
2022/07/14 10:19:57;;;;;;;30.02;27.52;;;23.20;99.90;;;;;;5033488;28;20059;-77
2022/07/14 10:22:25;;;;;;;28.55;26.42;;;23.30;99.90;;;;;;5049690;28;20102;-77
2022/07/14 10:24:52;;;;;;;29.90;27.35;;;23.20;99.90;;;;;;5036639;28;20205;-77
2022/07/14 10:27:20;;;;;;;29.77;27.13;;;23.30;99.90;;;;;;5019900;28;20041;-78
2022/07/14 10:29:51;;;;;;;28.45;26.33;;;23.50;99.90;;;;;;5022665;28;20658;-77
2022/07/14 10:32:49;;;;;;;29.92;27.33;;;23.60;99.90;;;;;;5033480;28;20809;-77
2022/07/14 10:35:19;;;;;;;28.63;26.35;;;23.60;99.90;;;;;;5008806;28;20055;-76
2022/07/14 10:38:07;;;;;;;27.90;25.85;;;23.70;99.90;;;;;;5010039;28;20490;-79
2022/07/14 10:40:40;;;;;;;28.55;26.80;;;24.10;99.90;;;;;;5047559;28;20776;-78
2022/07/14 10:43:14;;;;;;;29.30;27.40;;;24.30;99.90;;;;;;5020900;28;20077;-76
2022/07/14 10:45:52;;;;;;;30.10;28.10;;;24.00;99.90;;;;;;5033422;28;20584;-76
2022/07/14 10:48:29;;;;;;;28.13;25.85;;;24.00;99.90;;;;;;5015848;28;20049;-77
2022/07/14 10:51:14;;;;;;;30.05;27.85;;;24.00;99.90;;;;;;5050136;28;20067;-77
2022/07/14 10:53:59;;;;;;;;;;;23.80;99.90;;;;;;5027036;28;20633;-76
2022/07/14 10:56:46;;;;;;;28.83;26.75;;;23.60;99.90;;;;;;5037700;28;20324;-76
2022/07/14 10:59:25;;;;;;;28.83;26.92;;;23.30;99.90;;;;;;5050763;28;20032;-76
2022/07/14 11:02:11;;;;;;;29.17;26.98;;;23.40;99.90;;;;;;5032046;28;20453;-78
2022/07/14 11:04:56;;;;;;;28.17;26.27;;;23.70;99.90;;;;;;5057749;22;20538;-73
2022/07/14 11:07:52;;;;;;;28.20;26.27;;;24.00;99.90;;;;;;5066398;28;20209;-72
2022/07/14 11:10:19;;;;;;;30.33;28.13;;;23.90;99.90;;;;;;5033525;28;20040;-69
2022/07/14 11:13:05;;;;;;;29.70;27.80;;;23.50;99.90;;;;;;5042966;28;20566;-73
2022/07/14 11:15:50;;;;;;;28.75;27.00;;;23.60;99.90;;;;;;5047339;28;20040;-73
2022/07/14 11:18:17;;;;;;;30.08;27.90;;;23.70;99.90;;;;;;5045992;28;20517;-71
2022/07/14 11:21:18;;;;;;;29.70;27.60;;;23.90;99.90;;;;;;5049081;28;20044;-73
2022/07/14 11:23:54;;;;;;;29.00;27.02;;;23.50;99.90;;;;;;5069009;28;20271;-72
2022/07/14 11:26:47;;;;;;;28.42;26.27;;;23.90;99.90;;;;;;5059908;28;20044;-73
2022/07/14 11:29:30;;;;;;;29.67;27.65;;;24.30;99.30;;;;;;5061683;28;20047;-70
2022/07/14 11:31:57;;;;;;;29.00;27.02;;;24.40;98.20;;;;;;5043711;28;20432;-71
2022/07/14 11:37:19;;;;;;;28.77;26.73;;;24.50;99.90;;;;;;5063893;28;20136;-69
2022/07/14 11:40:43;;;;;;;27.48;25.52;;;24.00;99.80;;;;;;5036194;28;20050;-71
2022/07/14 11:43:31;;;;;;;28.98;27.02;;;24.30;98.20;;;;;;4950821;28;20278;-73
2022/07/14 11:46:12;;;;;;;27.63;25.83;;;24.50;95.90;;;;;;5026048;28;20044;-71
2022/07/14 11:48:44;;;;;;;29.83;27.92;;;24.50;95.70;;;;;;5066840;28;20048;-74
2022/07/14 11:51:20;;;;;;;28.90;27.00;;;24.60;97.00;;;;;;5065919;28;20581;-71
2022/07/14 11:53:52;;;;;;;30.20;28.02;;;24.50;96.50;;;;;;5073014;28;20086;-72
2022/07/14 11:56:24;;;;;;;28.63;26.52;;;24.70;97.20;;;;;;5046407;28;20040;-69
2022/07/14 11:59:03;;;;;;;28.98;27.13;;;24.60;96.90;;;;;;5044720;28;20486;-70
2022/07/14 12:01:34;;;;;;;28.73;26.73;;;24.60;97.50;;;;;;5063971;28;20037;-72
2022/07/14 12:04:17;;;;;;;29.10;27.20;;;24.70;96.30;;;;;;5043635;28;20041;-73
2022/07/14 12:06:46;;;;;;;30.45;28.55;;;24.50;95.60;;;;;;5049578;28;20043;-73
2022/07/14 12:09:26;;;;;;;30.33;27.98;;;24.40;96.20;;;;;;5049529;28;20222;-72
2022/07/14 12:12:06;;;;;;;29.55;27.55;;;24.60;96.30;;;;;;5043088;28;20036;-73
2022/07/14 12:14:46;;;;;;;29.95;27.92;;;24.30;95.90;;;;;;5042872;28;20139;-71
2022/07/14 12:17:13;;;;;;;29.55;27.50;;;24.30;96.80;;;;;;5067938;28;20094;-71
2022/07/14 12:19:40;;;;;;;29.90;27.95;;;24.30;97.30;;;;;;5062967;28;20049;-73
2022/07/14 12:22:07;;;;;;;28.38;26.67;;;24.30;97.40;;;;;;5058033;28;20040;-73
2022/07/14 12:24:35;;;;;;;29.00;26.92;;;24.20;97.00;;;;;;5061529;28;20494;-71
2022/07/14 12:27:06;;;;;;;29.63;27.65;;;24.50;97.20;;;;;;5063573;28;20366;-73
2022/07/14 12:29:35;;;;;;;29.98;27.85;;;24.40;95.60;;;;;;5044810;28;20044;-70
2022/07/14 12:32:02;;;;;;;29.50;27.77;;;24.60;96.60;;;;;;5067840;28;20125;-73
2022/07/14 12:34:30;;;;;;;28.98;27.10;;;24.50;97.00;;;;;;5063239;28;20050;-75
2022/07/14 12:37:00;;;;;;;29.52;27.48;;;24.20;96.60;;;;;;5051539;28;20037;-72
2022/07/14 12:39:29;;;;;;;29.08;26.95;;;24.30;96.00;;;;;;5050726;28;20140;-72
2022/07/14 12:41:58;;;;;;;29.30;27.25;;;24.50;95.40;;;;;;5049604;28;20492;-72
2022/07/14 12:44:25;;;;;;;29.33;27.42;;;24.40;96.50;;;;;;5063543;28;20124;-72
2022/07/14 12:47:09;;;;;;;29.48;27.48;;;24.40;96.20;;;;;;5051274;28;20106;-71
2022/07/14 12:49:48;;;;;;;28.83;26.95;;;24.60;96.50;;;;;;5051193;28;20499;-72
2022/07/14 12:52:16;;;;;;;28.23;26.25;;;24.50;96.90;;;;;;5051541;28;20051;-72
2022/07/14 12:54:43;;;;;;;28.40;26.58;;;24.50;95.80;;;;;;5037660;28;20131;-71
2022/07/14 12:57:33;;;;;;;29.58;27.60;;;24.60;96.20;;;;;;5054115;28;20205;-72